Selah, Washington
Current Conditions -  °F | °C
As of 5:56 AM on Thursday 23 Oct 2014 (Local Time) from K1YT Reporting Station
Light Rain Light Rain  
Wind Chill:   Ceiling: 7500
Heat Index:   Visibility: 10mi
Dew Point:   Wind: 8mph
Humidity: 80%   Direction: 340°NNW
Pressure: 29.75"   Gusts: NA
Location:  46.65°N, 120.53°W
Report Text: K1YT 231256Z AUTO 34007KT 10SM -RA BKN075 09/06 A2975 RMK AO2 LTG DSNT NW SLPNO T00930061
Loading
Personal Weather Stations






























Interactive Weather Map
Tropical Storm Tracking
New forecast layout! Learn more

10-Day Weather Forecast

Advertisements
Track Severe Weather on mobile